createdAt,value
2018-06-19T00:03:46.434Z,11.72
2018-06-19T00:09:41.468Z,8.75
2018-06-19T00:15:36.455Z,10.3
2018-06-19T00:21:31.488Z,9.8
2018-06-19T00:27:26.487Z,11.89
2018-06-19T00:33:21.493Z,10.1
2018-06-19T00:39:16.453Z,9.53
2018-06-19T00:45:11.493Z,9.43
2018-06-19T00:51:06.520Z,9.99
2018-06-19T00:57:01.522Z,9.83
2018-06-19T01:02:56.504Z,10.1
2018-06-19T01:08:51.508Z,8.74
2018-06-19T01:14:46.518Z,11.58
2018-06-19T01:20:41.532Z,9.6
2018-06-19T01:26:36.494Z,10.39
2018-06-19T01:32:31.512Z,9.67
2018-06-19T01:38:26.571Z,11.74
2018-06-19T01:44:21.539Z,13.53
2018-06-19T01:50:16.513Z,10.9
2018-06-19T01:56:11.525Z,11.87
2018-06-19T02:02:06.579Z,18.32
2018-06-19T02:08:01.549Z,11.29
2018-06-19T02:13:56.517Z,13.51
2018-06-19T02:19:51.619Z,10.97
2018-06-19T02:25:46.566Z,12.09
2018-06-19T02:31:41.579Z,14.87
2018-06-19T02:37:36.578Z,12.72
2018-06-19T02:43:31.601Z,12.34
2018-06-19T02:49:26.568Z,10.65
2018-06-19T02:55:21.559Z,11.25
2018-06-19T03:01:16.547Z,13.65
2018-06-19T03:07:11.603Z,12.62
2018-06-19T03:13:06.605Z,11.46
2018-06-19T03:19:01.618Z,11.31
2018-06-19T03:24:56.593Z,9.97
2018-06-19T03:30:51.580Z,8.7
2018-06-19T03:36:46.696Z,9.4
2018-06-19T03:42:41.625Z,9.85
2018-06-19T03:48:36.637Z,11.95
2018-06-19T03:54:31.577Z,11.87
2018-06-19T04:00:26.626Z,12.88
2018-06-19T04:06:21.695Z,13.93
2018-06-19T04:12:16.610Z,14.77
2018-06-19T04:18:11.638Z,12.29
2018-06-19T04:24:06.642Z,15.52
2018-06-19T04:30:01.691Z,12.01
2018-06-19T04:35:56.637Z,13.44
2018-06-19T04:41:51.656Z,10.33
2018-06-19T04:47:46.634Z,9.14
2018-06-19T04:53:41.624Z,8.87
2018-06-19T04:59:36.719Z,6.39
2018-06-19T05:05:31.646Z,10.18
2018-06-19T05:11:26.665Z,8.36
2018-06-19T05:17:21.762Z,6.48
2018-06-19T05:23:16.675Z,8.29
2018-06-19T05:29:11.681Z,7.22
2018-06-19T05:35:06.760Z,5.9
2018-06-19T05:41:01.675Z,6.8
2018-06-19T05:46:56.660Z,22.47
2018-06-19T05:52:51.749Z,52.93
2018-06-19T05:58:46.728Z,37.64
2018-06-19T06:04:41.675Z,26.4
2018-06-19T06:10:36.761Z,16.27
2018-06-19T06:16:31.795Z,15.73
2018-06-19T06:22:26.713Z,10.03
2018-06-19T06:28:21.719Z,11.15
2018-06-19T06:34:16.705Z,11.88
2018-06-19T06:40:11.794Z,15.45
2018-06-19T06:46:06.787Z,14.35
2018-06-19T06:52:01.727Z,11.52
2018-06-19T06:57:56.718Z,11.93
2018-06-19T07:03:51.714Z,10.95
2018-06-19T07:09:46.718Z,9.37
2018-06-19T07:15:41.793Z,6.46
2018-06-19T07:21:36.733Z,3.98
2018-06-19T07:27:31.754Z,3.96
2018-06-19T07:33:26.780Z,4.4
2018-06-19T07:39:21.802Z,6.33
2018-06-19T07:45:16.771Z,3.25
2018-06-19T07:51:11.829Z,3.51
2018-06-19T07:57:06.765Z,4.31
2018-06-19T08:03:01.766Z,3.67
2018-06-19T08:08:56.847Z,4.66
2018-06-19T08:14:51.793Z,5.24
2018-06-19T08:20:46.768Z,3
2018-06-19T08:26:41.769Z,3.04
2018-06-19T08:32:36.791Z,3.09
2018-06-19T08:38:31.809Z,3.96
2018-06-19T08:44:26.820Z,3.48
2018-06-19T08:50:21.847Z,3.53
2018-06-19T08:56:16.881Z,3.21
2018-06-19T09:02:11.871Z,3.8
2018-06-19T09:08:06.882Z,5.64
2018-06-19T09:14:01.838Z,5.75
2018-06-19T09:19:56.840Z,3.87
2018-06-19T09:25:51.848Z,3.64
2018-06-19T09:31:46.842Z,3.02
2018-06-19T09:37:41.894Z,3.63
2018-06-19T09:43:36.876Z,3.56
2018-06-19T09:49:31.872Z,4.46
2018-06-19T09:55:26.863Z,2.31
2018-06-19T10:01:21.894Z,2.59
2018-06-19T10:07:16.922Z,2.58
2018-06-19T10:13:11.882Z,3.96
2018-06-19T10:19:06.912Z,2.48
2018-06-19T10:25:02.048Z,2.42
2018-06-19T10:30:56.886Z,3.53
2018-06-19T10:36:51.901Z,1.93
2018-06-19T10:42:46.964Z,2.18
2018-06-19T10:48:41.996Z,1.92
2018-06-19T10:54:36.900Z,1.97
2018-06-19T11:00:31.924Z,1.9
2018-06-19T11:06:26.925Z,2.99
2018-06-19T11:12:21.958Z,2.76
2018-06-19T11:18:16.966Z,3.13
2018-06-19T11:24:11.940Z,1.79
2018-06-19T11:30:06.983Z,2.98
2018-06-19T11:36:01.946Z,1.8
2018-06-19T11:41:56.926Z,3.2
2018-06-19T11:47:52.032Z,2.06
2018-06-19T11:53:46.940Z,1.81
2018-06-19T11:59:41.962Z,2.14
2018-06-19T12:05:37.005Z,3.37
2018-06-19T12:11:31.999Z,2.94
2018-06-19T12:17:27.032Z,2.93
2018-06-19T12:23:21.993Z,2.24
2018-06-19T12:29:17.022Z,3.73
2018-06-19T12:35:12.027Z,2.66
2018-06-19T12:41:07.015Z,2.07
2018-06-19T12:47:02.016Z,1.8
2018-06-19T12:52:57.020Z,1.86
2018-06-19T12:58:52.043Z,2.07
2018-06-19T13:04:47.010Z,2.59
2018-06-19T13:10:42.045Z,5.68
2018-06-19T13:16:37.068Z,2.99
2018-06-19T13:22:32.044Z,1.85
2018-06-19T13:28:27.063Z,3.61
2018-06-19T13:34:22.059Z,2.53
2018-06-19T13:40:17.134Z,3
2018-06-19T13:46:12.059Z,3.53
2018-06-19T13:52:07.120Z,3.13
2018-06-19T13:58:02.046Z,6.04
2018-06-19T14:03:57.093Z,4.31
2018-06-19T14:09:52.093Z,3.25
2018-06-19T14:15:47.062Z,3.44
2018-06-19T14:21:42.098Z,2.42
2018-06-19T14:27:37.094Z,3.55
2018-06-19T14:33:32.080Z,2.69
2018-06-19T14:39:27.080Z,3.09
2018-06-19T14:45:22.148Z,3.3
2018-06-19T14:51:17.135Z,5.56
2018-06-19T14:57:12.179Z,3.05
2018-06-19T15:03:07.130Z,5.67
2018-06-19T15:09:02.156Z,4.13
2018-06-19T15:14:57.187Z,5.73
2018-06-19T15:20:52.113Z,3.04
2018-06-19T15:26:47.127Z,3.27
2018-06-19T15:32:42.147Z,3.93
2018-06-19T15:38:37.155Z,5.42
2018-06-19T15:44:32.198Z,3.33
2018-06-19T15:50:27.173Z,5.51
2018-06-19T15:56:22.152Z,4.16
2018-06-19T16:02:17.167Z,4.32
2018-06-19T16:08:12.242Z,4.47
2018-06-19T16:14:07.189Z,4.16
2018-06-19T16:20:02.462Z,3.57
2018-06-19T16:25:57.235Z,3.48
2018-06-19T16:31:52.272Z,5.26
2018-06-19T16:37:47.170Z,3.08
2018-06-19T16:43:42.170Z,7.27
2018-06-19T16:49:37.170Z,3.97
2018-06-19T16:55:32.275Z,6.7
2018-06-19T17:01:27.303Z,3.07
2018-06-19T17:07:22.251Z,4.7
2018-06-19T17:13:17.240Z,4.85
2018-06-19T17:19:12.233Z,7.56
2018-06-19T17:25:07.261Z,14.22
2018-06-19T17:31:02.272Z,4.38
2018-06-19T17:36:57.231Z,5.69
2018-06-19T17:42:52.254Z,11.63
2018-06-19T17:48:47.263Z,5.86
2018-06-19T17:54:42.238Z,6.77
2018-06-19T18:00:37.268Z,5
2018-06-19T18:06:32.375Z,4.47
2018-06-19T18:12:27.245Z,3.3
2018-06-19T18:18:22.307Z,3.44
2018-06-19T18:24:17.280Z,3.85
2018-06-19T18:30:12.262Z,3.87
2018-06-19T18:36:07.339Z,4.65
2018-06-19T18:42:02.291Z,4.27
2018-06-19T18:47:57.311Z,3.49
2018-06-19T18:53:52.320Z,6.04
2018-06-19T18:59:47.341Z,5.29
2018-06-19T19:05:42.317Z,4.59
2018-06-19T19:11:37.283Z,4.65
2018-06-19T19:17:32.307Z,3.5
2018-06-19T19:23:27.360Z,4.16
2018-06-19T19:29:22.318Z,3.6
2018-06-19T19:35:17.334Z,3.38
2018-06-19T19:41:12.299Z,4.02
2018-06-19T19:47:07.364Z,3.04
2018-06-19T19:53:02.358Z,2.92
2018-06-19T19:58:57.324Z,3.84
2018-06-19T20:04:52.324Z,3.84
2018-06-19T20:10:47.354Z,3.24
2018-06-19T20:16:42.396Z,3.94
2018-06-19T20:22:37.331Z,2.83
2018-06-19T20:28:32.355Z,3.22
2018-06-19T20:34:27.344Z,2.52
2018-06-19T20:40:22.343Z,2.69
2018-06-19T20:46:17.355Z,1.88
2018-06-19T20:52:12.388Z,2.85
2018-06-19T20:58:07.420Z,4
2018-06-19T21:04:02.420Z,4.04
2018-06-19T21:09:57.388Z,2.07
2018-06-19T21:15:52.454Z,2.43
2018-06-19T21:21:47.478Z,2.09
2018-06-19T21:27:42.408Z,1.85
2018-06-19T21:33:37.416Z,3.58
2018-06-19T21:39:32.400Z,2.4
2018-06-19T21:45:27.455Z,1.5
